createdAt,value
2022-11-12T00:00:46.070Z,4.31
2022-11-12T00:03:12.366Z,4.24
2022-11-12T00:05:38.713Z,4.13
2022-11-12T00:08:05.092Z,4.14
2022-11-12T00:10:31.489Z,4.07
2022-11-12T00:12:57.768Z,4.10
2022-11-12T00:15:24.102Z,3.98
2022-11-12T00:17:50.419Z,3.97
2022-11-12T00:20:16.844Z,3.93
2022-11-12T00:22:43.105Z,3.92
2022-11-12T00:25:09.723Z,3.82
2022-11-12T00:27:36.144Z,3.80
2022-11-12T00:30:02.607Z,3.72
2022-11-12T00:32:28.922Z,3.66
2022-11-12T00:34:55.300Z,3.69
2022-11-12T00:37:21.613Z,3.73
2022-11-12T00:39:47.954Z,3.68
2022-11-12T00:42:14.230Z,3.76
2022-11-12T00:44:40.584Z,3.70
2022-11-12T00:47:06.864Z,3.76
2022-11-12T00:49:33.191Z,3.80
2022-11-12T00:51:59.522Z,3.82
2022-11-12T00:54:25.867Z,3.83
2022-11-12T00:56:52.241Z,3.82
2022-11-12T00:59:18.500Z,3.89
2022-11-12T01:01:44.824Z,3.82
2022-11-12T01:04:11.244Z,3.81
2022-11-12T01:06:39.553Z,3.84
2022-11-12T01:09:05.946Z,3.77
2022-11-12T01:11:32.251Z,3.81
2022-11-12T01:14:01.258Z,3.73
2022-11-12T01:16:34.539Z,3.73
2022-11-12T01:19:04.900Z,3.74
2022-11-12T01:21:32.770Z,3.80
2022-11-12T01:24:00.593Z,3.79
2022-11-12T01:26:28.147Z,3.75
2022-11-12T01:28:55.589Z,3.71
2022-11-12T01:31:33.875Z,3.78
2022-11-12T01:34:02.923Z,3.68
2022-11-12T01:36:33.278Z,3.73
2022-11-12T01:38:59.798Z,3.70
2022-11-12T01:41:29.683Z,3.72
2022-11-12T01:44:19.180Z,3.71
2022-11-12T01:47:00.862Z,3.72
2022-11-12T01:49:32.737Z,3.71
2022-11-12T01:52:08.718Z,3.72
2022-11-12T01:54:35.962Z,3.73
2022-11-12T01:57:02.608Z,3.80
2022-11-12T01:59:37.873Z,3.83
2022-11-12T02:02:04.728Z,3.89
2022-11-12T02:04:33.445Z,3.87
2022-11-12T02:07:00.958Z,3.86
2022-11-12T02:09:28.042Z,3.92
2022-11-12T02:11:54.479Z,3.97
2022-11-12T02:14:21.096Z,4.02
2022-11-12T02:16:48.669Z,3.98
2022-11-12T02:19:16.410Z,4.03
2022-11-12T02:21:43.428Z,3.94
2022-11-12T02:24:12.533Z,3.98
2022-11-12T02:26:42.907Z,3.91
2022-11-12T02:29:09.261Z,3.81
2022-11-12T02:31:35.927Z,3.87
2022-11-12T02:34:02.710Z,3.78
2022-11-12T02:36:29.952Z,3.80
2022-11-12T02:38:56.762Z,3.73
2022-11-12T02:41:23.800Z,3.65
2022-11-12T02:43:50.402Z,3.53
2022-11-12T02:46:16.966Z,3.53
2022-11-12T02:48:44.309Z,3.47
2022-11-12T02:51:10.982Z,3.36
2022-11-12T02:53:37.343Z,3.45
2022-11-12T02:56:03.983Z,3.53
2022-11-12T02:58:30.879Z,3.50
2022-11-12T03:00:58.077Z,3.56
2022-11-12T03:03:24.461Z,3.55
2022-11-12T03:05:58.667Z,3.46
2022-11-12T03:08:26.387Z,3.39
2022-11-12T03:10:53.385Z,3.38
2022-11-12T03:13:20.983Z,3.29
2022-11-12T03:15:47.748Z,3.30
2022-11-12T03:18:14.124Z,3.24
2022-11-12T03:20:40.412Z,3.27
2022-11-12T03:23:09.297Z,3.18
2022-11-12T03:25:36.492Z,3.14
2022-11-12T03:28:12.191Z,3.10
2022-11-12T03:30:40.604Z,3.04
2022-11-12T03:33:09.597Z,2.97
2022-11-12T03:35:36.394Z,3.06
2022-11-12T03:38:03.104Z,3.11
2022-11-12T03:40:30.271Z,3.09
2022-11-12T03:42:56.942Z,3.16
2022-11-12T03:45:25.974Z,3.17
2022-11-12T03:47:58.042Z,3.29
2022-11-12T03:50:27.907Z,3.19
2022-11-12T03:52:59.421Z,3.24
2022-11-12T03:55:28.688Z,3.13
2022-11-12T03:57:56.385Z,3.09
2022-11-12T04:00:24.837Z,3.09
2022-11-12T04:02:51.750Z,3.06
2022-11-12T04:05:18.462Z,3.00
2022-11-12T04:07:44.831Z,2.91
2022-11-12T04:10:11.175Z,3.00
2022-11-12T04:12:37.505Z,2.92
2022-11-12T04:15:04.215Z,2.88
2022-11-12T04:17:30.528Z,2.89
2022-11-12T04:19:56.864Z,2.87
2022-11-12T04:22:23.194Z,2.82
2022-11-12T04:24:49.721Z,2.85
2022-11-12T04:27:34.253Z,2.82
2022-11-12T04:30:00.564Z,2.83
2022-11-12T04:32:27.763Z,2.75
2022-11-12T04:34:54.456Z,2.80
2022-11-12T04:37:23.601Z,2.78
2022-11-12T04:39:51.397Z,2.82
2022-11-12T04:42:18.193Z,2.80
2022-11-12T04:44:44.766Z,2.76
2022-11-12T04:47:11.130Z,2.68
2022-11-12T04:49:37.461Z,2.65
2022-11-12T04:52:04.020Z,2.66
2022-11-12T04:54:30.597Z,2.64
2022-11-12T04:56:56.927Z,2.62
2022-11-12T04:59:23.252Z,2.61
2022-11-12T05:01:49.609Z,2.63
2022-11-12T05:04:16.345Z,2.52
2022-11-12T05:06:42.710Z,2.54
2022-11-12T05:09:09.025Z,2.56
2022-11-12T05:11:35.392Z,2.44
2022-11-12T05:14:01.731Z,2.40
2022-11-12T05:16:28.075Z,2.44
2022-11-12T05:18:54.394Z,2.35
2022-11-12T05:21:20.797Z,2.29
2022-11-12T05:23:47.056Z,2.34
2022-11-12T05:26:13.364Z,2.33
2022-11-12T05:28:39.722Z,2.45
2022-11-12T05:31:05.990Z,2.53
2022-11-12T05:33:32.301Z,2.49
2022-11-12T05:35:58.638Z,2.36
2022-11-12T05:38:25.241Z,2.34
2022-11-12T05:40:51.953Z,2.18
2022-11-12T05:43:18.269Z,2.13
2022-11-12T05:45:44.889Z,2.17
2022-11-12T05:48:11.207Z,2.06
2022-11-12T05:50:45.387Z,1.97
2022-11-12T05:53:24.069Z,1.83
2022-11-12T05:55:50.358Z,1.83
2022-11-12T05:58:16.666Z,1.82
2022-11-12T06:00:42.993Z,1.79
2022-11-12T06:03:10.399Z,1.87
2022-11-12T06:05:36.899Z,1.73
2022-11-12T06:08:03.500Z,1.83
2022-11-12T06:10:29.899Z,1.73
2022-11-12T06:12:56.243Z,1.76
2022-11-12T06:15:22.655Z,1.81
2022-11-12T06:17:48.906Z,1.78
2022-11-12T06:20:15.218Z,1.63
2022-11-12T06:22:41.551Z,1.61
2022-11-12T06:25:08.006Z,1.54
2022-11-12T06:27:34.246Z,1.57
2022-11-12T06:30:00.619Z,1.52
2022-11-12T06:32:27.280Z,1.48
2022-11-12T06:34:53.631Z,1.56
2022-11-12T06:37:20.346Z,1.56
2022-11-12T06:39:46.663Z,1.56
2022-11-12T06:42:13.363Z,1.59
2022-11-12T06:44:39.712Z,1.65
2022-11-12T06:47:06.350Z,1.49
2022-11-12T06:49:32.923Z,1.57
2022-11-12T06:51:59.291Z,1.52
2022-11-12T06:54:25.755Z,1.48
2022-11-12T06:56:52.272Z,1.54
2022-11-12T06:59:18.819Z,1.47
2022-11-12T07:01:45.405Z,1.44
2022-11-12T07:04:11.802Z,1.29
2022-11-12T07:06:38.684Z,1.25
2022-11-12T07:09:05.822Z,1.24
2022-11-12T07:11:32.153Z,1.22
2022-11-12T07:13:58.520Z,1.22
2022-11-12T07:16:24.950Z,1.32
2022-11-12T07:18:51.184Z,1.36
2022-11-12T07:21:19.788Z,1.38
2022-11-12T07:23:47.477Z,1.31
2022-11-12T07:26:25.246Z,1.36
2022-11-12T07:28:52.552Z,1.38
2022-11-12T07:31:20.113Z,1.47
2022-11-12T07:33:47.238Z,1.56
2022-11-12T07:36:18.897Z,1.56
2022-11-12T07:38:46.226Z,1.68
2022-11-12T07:41:15.101Z,1.81
2022-11-12T07:43:43.561Z,1.86
2022-11-12T07:46:15.592Z,1.93
2022-11-12T07:48:42.740Z,1.99
2022-11-12T07:51:13.820Z,2.11
2022-11-12T07:53:40.920Z,2.19
2022-11-12T07:56:07.710Z,2.29
2022-11-12T07:58:34.403Z,2.30
2022-11-12T08:01:10.766Z,2.44
2022-11-12T08:03:37.341Z,2.45
2022-11-12T08:06:04.177Z,2.57
2022-11-12T08:08:30.513Z,2.59
2022-11-12T08:10:57.954Z,2.68
2022-11-12T08:13:24.640Z,2.79
2022-11-12T08:15:52.464Z,2.96
2022-11-12T08:18:18.975Z,2.97
2022-11-12T08:20:45.216Z,3.13
2022-11-12T08:23:11.550Z,3.11
2022-11-12T08:25:37.822Z,3.28
2022-11-12T08:28:04.361Z,3.29
2022-11-12T08:30:30.727Z,3.44
2022-11-12T08:32:57.821Z,3.53
2022-11-12T08:35:25.874Z,3.65
2022-11-12T08:37:52.800Z,3.74
2022-11-12T08:40:19.262Z,3.80
2022-11-12T08:42:45.696Z,3.92
2022-11-12T08:45:12.043Z,4.03
2022-11-12T08:47:38.360Z,4.28
2022-11-12T08:50:05.099Z,4.44
2022-11-12T08:52:31.487Z,4.57
2022-11-12T08:54:57.825Z,4.77
2022-11-12T08:57:24.360Z,4.94
2022-11-12T08:59:50.730Z,5.09
2022-11-12T09:02:17.004Z,5.27
2022-11-12T09:04:44.095Z,5.37
2022-11-12T09:07:28.527Z,5.53
2022-11-12T09:09:56.822Z,5.83
2022-11-12T09:12:23.183Z,6.00
2022-11-12T09:14:49.538Z,6.18
2022-11-12T09:17:15.939Z,6.22
2022-11-12T09:19:43.164Z,6.37
2022-11-12T09:22:09.669Z,6.54
2022-11-12T09:24:36.032Z,6.85
2022-11-12T09:27:02.495Z,7.13
2022-11-12T09:29:28.863Z,7.31
2022-11-12T09:31:55.252Z,7.53
2022-11-12T09:34:21.593Z,7.75
2022-11-12T09:36:47.957Z,7.91
2022-11-12T09:39:14.369Z,8.09
2022-11-12T09:41:42.210Z,8.23
2022-11-12T09:44:15.616Z,8.43
2022-11-12T09:46:54.029Z,8.62
2022-11-12T09:49:25.845Z,8.75
2022-11-12T09:52:16.882Z,8.86
2022-11-12T09:54:43.341Z,9.03
2022-11-12T09:57:12.679Z,9.14
2022-11-12T09:59:42.296Z,9.27
2022-11-12T10:02:31.983Z,9.47
2022-11-12T10:05:30.210Z,9.64
2022-11-12T10:08:07.753Z,9.74
2022-11-12T10:10:48.516Z,9.99
2022-11-12T10:13:17.778Z,10.16
2022-11-12T10:16:01.688Z,10.35
2022-11-12T10:18:40.637Z,10.61
2022-11-12T10:21:18.772Z,10.89
2022-11-12T10:23:47.109Z,11.05
2022-11-12T10:26:19.367Z,11.24
2022-11-12T10:28:51.391Z,11.42
2022-11-12T10:31:21.194Z,11.55
2022-11-12T10:33:48.075Z,11.77
2022-11-12T10:36:29.787Z,11.93
2022-11-12T10:38:56.515Z,12.08
2022-11-12T10:41:31.340Z,12.14
2022-11-12T10:44:00.158Z,12.20
2022-11-12T10:46:32.141Z,12.26
2022-11-12T10:49:01.692Z,12.25
2022-11-12T10:51:31.565Z,12.22
2022-11-12T10:53:58.117Z,12.28
2022-11-12T10:56:28.829Z,12.42
2022-11-12T10:59:16.652Z,12.53
2022-11-12T11:01:46.099Z,12.65
2022-11-12T11:04:22.443Z,12.76
2022-11-12T11:06:57.384Z,12.90
2022-11-12T11:09:25.221Z,12.97
2022-11-12T11:11:53.159Z,13.01
2022-11-12T11:14:22.351Z,13.12
2022-11-12T11:17:18.625Z,13.19
2022-11-12T11:19:45.066Z,13.24
2022-11-12T11:22:39.104Z,13.37
2022-11-12T11:25:27.540Z,13.44
2022-11-12T11:28:12.866Z,13.49
2022-11-12T11:30:52.011Z,13.45
2022-11-12T11:33:23.879Z,13.52
2022-11-12T11:36:16.169Z,13.61
2022-11-12T11:38:55.196Z,13.62
2022-11-12T11:41:46.400Z,13.73
2022-11-12T11:44:25.678Z,13.83
2022-11-12T11:46:58.001Z,13.91
2022-11-12T11:49:41.473Z,14.00
2022-11-12T11:52:32.324Z,14.01
2022-11-12T11:55:20.707Z,14.14
2022-11-12T11:58:28.984Z,14.22
2022-11-12T12:01:26.297Z,14.38
2022-11-12T12:04:13.377Z,14.46
2022-11-12T12:07:08.614Z,14.55
2022-11-12T12:09:57.487Z,14.60
2022-11-12T12:12:30.040Z,14.70
2022-11-12T12:15:11.943Z,14.73
2022-11-12T12:18:09.478Z,14.72
2022-11-12T12:20:48.086Z,14.68
2022-11-12T12:23:26.331Z,14.68
2022-11-12T12:26:00.282Z,14.64
2022-11-12T12:28:49.335Z,14.56
2022-11-12T12:31:21.027Z,14.62
2022-11-12T12:33:52.776Z,14.52
2022-11-12T12:36:31.979Z,14.48
2022-11-12T12:39:31.447Z,14.48
2022-11-12T12:42:06.155Z,14.47
2022-11-12T12:44:44.098Z,14.46
2022-11-12T12:47:13.712Z,14.42
2022-11-12T12:49:41.759Z,14.47
2022-11-12T12:52:12.699Z,14.48
2022-11-12T12:54:39.000Z,14.43
2022-11-12T12:57:27.625Z,14.41
2022-11-12T13:00:24.992Z,14.37
2022-11-12T13:02:51.920Z,14.28
2022-11-12T13:05:24.686Z,14.30
2022-11-12T13:07:52.309Z,14.23
2022-11-12T13:10:33.588Z,14.25
2022-11-12T13:13:32.120Z,14.19
2022-11-12T13:16:00.691Z,14.10
2022-11-12T13:18:39.197Z,14.15
2022-11-12T13:21:10.962Z,14.10
2022-11-12T13:23:49.517Z,14.09
2022-11-12T13:26:54.005Z,14.11
2022-11-12T13:29:29.293Z,14.09
2022-11-12T13:32:36.949Z,14.08
2022-11-12T13:35:18.642Z,14.02
2022-11-12T13:37:48.045Z,14.03
2022-11-12T13:40:19.532Z,14.03
2022-11-12T13:42:46.386Z,13.89
2022-11-12T13:45:13.509Z,13.93
2022-11-12T13:47:40.329Z,13.89
2022-11-12T13:50:15.142Z,13.93
2022-11-12T13:52:41.840Z,13.94
2022-11-12T13:55:22.613Z,13.90
2022-11-12T13:57:50.909Z,13.88
2022-11-12T14:00:24.676Z,13.98
2022-11-12T14:02:58.567Z,13.92
2022-11-12T14:05:35.508Z,13.97
2022-11-12T14:08:31.930Z,14.03
2022-11-12T14:11:11.326Z,14.00
2022-11-12T14:14:05.624Z,14.06
2022-11-12T14:16:59.873Z,14.01
2022-11-12T14:19:51.252Z,14.00
2022-11-12T14:22:19.722Z,13.99
2022-11-12T14:24:52.301Z,14.00
2022-11-12T14:27:30.866Z,14.01
2022-11-12T14:30:18.600Z,13.99
2022-11-12T14:32:47.290Z,13.93
2022-11-12T14:35:28.709Z,13.96
2022-11-12T14:38:00.214Z,13.89
2022-11-12T14:40:29.688Z,13.90
2022-11-12T14:42:56.682Z,13.86
2022-11-12T14:45:23.936Z,13.91
2022-11-12T14:47:53.639Z,13.81
2022-11-12T14:50:39.120Z,13.84
2022-11-12T14:53:14.664Z,13.75
2022-11-12T14:55:44.218Z,13.69
2022-11-12T14:58:15.393Z,13.60
2022-11-12T15:00:44.692Z,13.46
2022-11-12T15:03:18.857Z,13.47
2022-11-12T15:05:57.224Z,13.32
2022-11-12T15:08:36.057Z,13.19
2022-11-12T15:11:18.847Z,13.05
2022-11-12T15:13:48.973Z,12.92
2022-11-12T15:16:22.364Z,12.73
2022-11-12T15:19:15.937Z,12.62
2022-11-12T15:21:47.955Z,12.61
2022-11-12T15:24:14.307Z,12.58
2022-11-12T15:26:43.935Z,12.57
2022-11-12T15:29:10.243Z,12.54
2022-11-12T15:31:53.618Z,12.51
2022-11-12T15:34:26.821Z,12.40
2022-11-12T15:36:55.225Z,12.35
2022-11-12T15:39:22.375Z,12.29
2022-11-12T15:41:56.125Z,12.22
2022-11-12T15:44:22.580Z,12.16
2022-11-12T15:46:48.953Z,11.97
2022-11-12T15:49:15.343Z,11.86
2022-11-12T15:51:41.723Z,11.80
2022-11-12T15:54:08.105Z,11.74
2022-11-12T15:56:34.593Z,11.65
2022-11-12T15:59:01.091Z,11.55
2022-11-12T16:01:27.483Z,11.50
2022-11-12T16:03:53.891Z,11.41
2022-11-12T16:06:20.241Z,11.31
2022-11-12T16:08:46.615Z,11.24
2022-11-12T16:11:13.534Z,11.11
2022-11-12T16:13:39.917Z,11.07
2022-11-12T16:16:07.247Z,10.93
2022-11-12T16:18:33.665Z,10.77
2022-11-12T16:21:00.007Z,10.67
2022-11-12T16:23:26.635Z,10.68
2022-11-12T16:25:53.213Z,10.61
2022-11-12T16:28:19.569Z,10.44
2022-11-12T16:30:47.317Z,10.43
2022-11-12T16:33:13.847Z,10.31
2022-11-12T16:35:40.387Z,10.14
2022-11-12T16:38:15.421Z,10.10
2022-11-12T16:40:42.438Z,10.04
2022-11-12T16:43:12.007Z,10.01
2022-11-12T16:45:40.149Z,9.94
2022-11-12T16:48:17.542Z,9.86
2022-11-12T16:50:44.087Z,9.77
2022-11-12T16:53:10.547Z,9.62
2022-11-12T16:55:37.027Z,9.55
2022-11-12T16:58:03.500Z,9.42
2022-11-12T17:00:30.103Z,9.30
2022-11-12T17:02:56.499Z,9.20
2022-11-12T17:05:24.934Z,9.16
2022-11-12T17:07:56.195Z,9.13
2022-11-12T17:10:22.926Z,9.06
2022-11-12T17:12:50.245Z,8.90
2022-11-12T17:15:16.676Z,8.83
2022-11-12T17:17:43.151Z,8.77
2022-11-12T17:20:10.197Z,8.74
2022-11-12T17:22:37.312Z,8.69
2022-11-12T17:25:04.398Z,8.56
2022-11-12T17:27:31.001Z,8.49
2022-11-12T17:29:57.428Z,8.39
2022-11-12T17:32:23.786Z,8.32
2022-11-12T17:34:50.176Z,8.25
2022-11-12T17:37:16.589Z,8.15
2022-11-12T17:39:43.027Z,8.03
2022-11-12T17:42:09.389Z,7.95
2022-11-12T17:44:35.802Z,7.79
2022-11-12T17:47:02.485Z,7.75
2022-11-12T17:49:28.905Z,7.72
2022-11-12T17:51:55.296Z,7.77
2022-11-12T17:54:21.733Z,7.69
2022-11-12T17:56:48.224Z,7.67
2022-11-12T17:59:14.596Z,7.66
2022-11-12T18:01:41.077Z,7.55
2022-11-12T18:04:10.003Z,7.58
2022-11-12T18:06:36.476Z,7.56
2022-11-12T18:09:11.610Z,7.52
2022-11-12T18:11:47.174Z,7.37
2022-11-12T18:14:13.774Z,7.42
2022-11-12T18:16:40.373Z,7.34
2022-11-12T18:19:08.156Z,7.35
2022-11-12T18:21:34.591Z,7.27
2022-11-12T18:24:01.036Z,7.14
2022-11-12T18:26:27.516Z,7.08
2022-11-12T18:28:55.264Z,6.91
2022-11-12T18:31:22.687Z,6.88
2022-11-12T18:33:49.948Z,6.86
2022-11-12T18:36:19.079Z,6.73
2022-11-12T18:38:45.810Z,6.63
2022-11-12T18:41:16.832Z,6.54
2022-11-12T18:43:43.598Z,6.47
2022-11-12T18:46:11.415Z,6.50
2022-11-12T18:48:39.191Z,6.46
2022-11-12T18:51:11.470Z,6.45
2022-11-12T18:53:38.617Z,6.43
2022-11-12T18:56:11.690Z,6.33
2022-11-12T18:58:38.158Z,6.28
2022-11-12T19:01:06.662Z,6.20
2022-11-12T19:03:33.035Z,6.13
2022-11-12T19:06:00.867Z,6.09
2022-11-12T19:08:27.275Z,6.10
2022-11-12T19:11:06.308Z,6.04
2022-11-12T19:13:32.968Z,5.95
2022-11-12T19:16:10.636Z,5.91
2022-11-12T19:18:38.042Z,5.83
2022-11-12T19:21:07.306Z,5.86
2022-11-12T19:23:34.027Z,5.83
2022-11-12T19:26:01.518Z,5.90
2022-11-12T19:28:28.712Z,5.88
2022-11-12T19:30:56.175Z,5.92
2022-11-12T19:33:22.991Z,5.92
2022-11-12T19:35:49.553Z,5.90
2022-11-12T19:38:15.919Z,5.95
2022-11-12T19:40:42.383Z,5.93
2022-11-12T19:43:08.772Z,5.88
2022-11-12T19:45:35.245Z,5.88
2022-11-12T19:48:01.674Z,5.85
2022-11-12T19:50:28.054Z,5.80
2022-11-12T19:52:54.338Z,5.80
2022-11-12T19:55:20.776Z,5.73
2022-11-12T19:57:47.436Z,5.66
2022-11-12T20:00:14.424Z,5.59
2022-11-12T20:02:41.051Z,5.63
2022-11-12T20:05:07.739Z,5.60
2022-11-12T20:07:34.104Z,5.63
2022-11-12T20:10:01.219Z,5.62
2022-11-12T20:12:27.835Z,5.54
2022-11-12T20:14:54.129Z,5.56
2022-11-12T20:17:20.615Z,5.53
2022-11-12T20:19:47.122Z,5.50
2022-11-12T20:22:13.549Z,5.44
2022-11-12T20:24:40.007Z,5.47
2022-11-12T20:27:06.635Z,5.42
2022-11-12T20:29:33.161Z,5.43
2022-11-12T20:31:59.585Z,5.42
2022-11-12T20:34:26.004Z,5.34
2022-11-12T20:36:54.684Z,5.39
2022-11-12T20:39:22.196Z,5.35
2022-11-12T20:41:48.596Z,5.34
2022-11-12T20:44:14.976Z,5.30
2022-11-12T20:46:41.318Z,5.25
2022-11-12T20:49:10.602Z,5.16
2022-11-12T20:51:37.031Z,5.11
2022-11-12T20:54:03.577Z,5.03
2022-11-12T20:56:31.112Z,4.96
2022-11-12T20:58:59.161Z,4.93
2022-11-12T21:01:27.700Z,4.84
2022-11-12T21:03:56.546Z,4.85
2022-11-12T21:06:27.446Z,4.85
2022-11-12T21:08:53.898Z,4.82
2022-11-12T21:11:22.161Z,4.87
2022-11-12T21:13:48.786Z,4.83
2022-11-12T21:16:15.627Z,4.79
2022-11-12T21:18:42.887Z,4.77
2022-11-12T21:21:17.961Z,4.73
2022-11-12T21:23:45.146Z,4.76
2022-11-12T21:26:14.858Z,4.70
2022-11-12T21:28:46.850Z,4.56
2022-11-12T21:31:16.196Z,4.55
2022-11-12T21:33:42.843Z,4.52
2022-11-12T21:36:15.874Z,4.47
2022-11-12T21:38:42.993Z,4.45
2022-11-12T21:41:12.257Z,4.33
2022-11-12T21:43:40.725Z,4.32
2022-11-12T21:46:08.873Z,4.35
2022-11-12T21:48:35.856Z,4.34
2022-11-12T21:51:07.864Z,4.31
2022-11-12T21:53:34.216Z,4.34
2022-11-12T21:56:11.214Z,4.37
2022-11-12T21:58:38.514Z,4.34
2022-11-12T22:01:19.143Z,4.25
2022-11-12T22:03:47.064Z,4.30
2022-11-12T22:06:13.641Z,4.28
2022-11-12T22:08:41.017Z,4.27
2022-11-12T22:11:10.538Z,4.26
2022-11-12T22:13:37.255Z,4.20
2022-11-12T22:16:07.726Z,4.20
2022-11-12T22:18:34.494Z,4.20
2022-11-12T22:21:11.594Z,4.21
2022-11-12T22:23:38.392Z,4.16
2022-11-12T22:26:07.963Z,4.19
2022-11-12T22:28:34.349Z,4.13
2022-11-12T22:31:20.204Z,4.12
2022-11-12T22:33:46.854Z,4.07
2022-11-12T22:36:15.758Z,4.01
2022-11-12T22:38:44.958Z,3.99
2022-11-12T22:41:19.769Z,4.04
2022-11-12T22:43:51.351Z,3.89
2022-11-12T22:46:26.985Z,4.02
2022-11-12T22:48:54.461Z,3.98
2022-11-12T22:51:26.699Z,4.03
2022-11-12T22:53:55.537Z,4.00
2022-11-12T22:56:22.978Z,4.00
2022-11-12T22:58:49.842Z,3.98
2022-11-12T23:01:31.250Z,3.92
2022-11-12T23:04:00.300Z,3.99
2022-11-12T23:06:28.900Z,3.93
2022-11-12T23:08:56.863Z,3.91
2022-11-12T23:11:23.468Z,3.85
2022-11-12T23:13:49.874Z,3.84
2022-11-12T23:16:17.700Z,3.79
2022-11-12T23:18:44.656Z,3.75
2022-11-12T23:21:14.802Z,3.71
2022-11-12T23:23:41.268Z,3.77
2022-11-12T23:26:09.992Z,3.77
2022-11-12T23:28:36.725Z,3.74
2022-11-12T23:31:05.081Z,3.75
2022-11-12T23:33:31.582Z,3.71
2022-11-12T23:36:08.248Z,3.71
2022-11-12T23:38:34.847Z,3.70
2022-11-12T23:41:02.441Z,3.75
2022-11-12T23:43:29.064Z,3.76
2022-11-12T23:45:58.633Z,3.78
2022-11-12T23:48:27.085Z,3.58
2022-11-12T23:51:11.799Z,3.73
2022-11-12T23:53:38.793Z,3.76
2022-11-12T23:56:07.827Z,3.76
2022-11-12T23:58:35.364Z,3.55
